createdAt,value
2019-02-16T00:00:48.301Z,2.19
2019-02-16T00:03:18.250Z,2.06
2019-02-16T00:05:47.652Z,2.01
2019-02-16T00:08:17.018Z,2.09
2019-02-16T00:10:46.378Z,2.08
2019-02-16T00:13:15.722Z,1.99
2019-02-16T00:15:45.059Z,1.88
2019-02-16T00:18:14.383Z,1.83
2019-02-16T00:20:43.770Z,1.97
2019-02-16T00:23:13.108Z,2.01
2019-02-16T00:25:42.448Z,2.01
2019-02-16T00:28:11.823Z,2.04
2019-02-16T00:30:41.142Z,2.08
2019-02-16T00:33:10.566Z,1.86
2019-02-16T00:35:40.104Z,1.86
2019-02-16T00:38:09.477Z,1.92
2019-02-16T00:40:38.855Z,1.91
2019-02-16T00:43:08.188Z,1.86
2019-02-16T00:45:37.573Z,1.80
2019-02-16T00:48:06.936Z,1.87
2019-02-16T00:50:36.286Z,1.91
2019-02-16T00:53:05.653Z,1.94
2019-02-16T00:55:35.088Z,1.89
2019-02-16T00:58:04.441Z,1.82
2019-02-16T01:00:33.784Z,1.85
2019-02-16T01:03:03.109Z,1.89
2019-02-16T01:05:32.469Z,1.96
2019-02-16T01:08:01.782Z,1.96
2019-02-16T01:10:31.144Z,1.96
2019-02-16T01:13:00.471Z,2.03
2019-02-16T01:15:29.890Z,2.08
2019-02-16T01:17:59.241Z,2.10
2019-02-16T01:20:28.583Z,2.09
2019-02-16T01:22:57.935Z,2.16
2019-02-16T01:25:27.269Z,2.13
2019-02-16T01:27:56.588Z,2.14
2019-02-16T01:30:25.922Z,2.12
2019-02-16T01:32:55.241Z,2.16
2019-02-16T01:35:24.610Z,2.19
2019-02-16T01:37:53.915Z,2.11
2019-02-16T01:40:23.262Z,2.15
2019-02-16T01:42:52.592Z,2.21
2019-02-16T01:45:21.976Z,2.14
2019-02-16T01:47:51.357Z,2.28
2019-02-16T01:50:20.727Z,2.22
2019-02-16T01:52:50.070Z,2.21
2019-02-16T01:55:19.398Z,2.22
2019-02-16T01:57:48.744Z,2.27
2019-02-16T02:00:18.094Z,2.27
2019-02-16T02:02:47.413Z,2.27
2019-02-16T02:05:16.844Z,2.23
2019-02-16T02:07:46.216Z,2.16
2019-02-16T02:10:15.660Z,2.16
2019-02-16T02:12:45.030Z,2.16
2019-02-16T02:15:14.472Z,2.17
2019-02-16T02:17:43.813Z,2.12
2019-02-16T02:20:13.259Z,2.13
2019-02-16T02:22:42.617Z,2.13
2019-02-16T02:25:12.199Z,2.10
2019-02-16T02:27:41.543Z,2.14
2019-02-16T02:30:11.282Z,2.07
2019-02-16T02:32:40.662Z,2.02
2019-02-16T02:35:10.177Z,2.02
2019-02-16T02:37:39.545Z,1.98
2019-02-16T02:40:09.411Z,1.97
2019-02-16T02:42:38.834Z,1.87
2019-02-16T02:45:09.426Z,1.83
2019-02-16T02:47:38.772Z,1.81
2019-02-16T02:50:08.278Z,1.87
2019-02-16T02:52:37.650Z,1.86
2019-02-16T02:55:07.589Z,1.76
2019-02-16T02:57:36.997Z,1.75
2019-02-16T03:00:07.475Z,1.74
2019-02-16T03:02:36.764Z,1.72
2019-02-16T03:05:07.075Z,1.68
2019-02-16T03:07:36.528Z,1.71
2019-02-16T03:10:06.066Z,1.71
2019-02-16T03:12:35.412Z,1.74
2019-02-16T03:15:04.886Z,1.77
2019-02-16T03:17:34.199Z,1.77
2019-02-16T03:20:03.654Z,1.76
2019-02-16T03:23:08.781Z,1.80
2019-02-16T03:25:38.131Z,1.77
2019-02-16T03:28:42.946Z,1.84
2019-02-16T03:31:45.591Z,1.85
2019-02-16T03:34:21.595Z,1.90
2019-02-16T03:37:25.231Z,1.82
2019-02-16T03:39:54.588Z,1.82
2019-02-16T03:42:24.118Z,1.78
2019-02-16T03:44:53.426Z,1.80
2019-02-16T03:47:22.721Z,1.81
2019-02-16T03:49:52.068Z,1.81
2019-02-16T03:52:21.418Z,1.88
2019-02-16T03:54:50.757Z,1.90
2019-02-16T03:57:20.135Z,1.95
2019-02-16T03:59:49.690Z,1.96
2019-02-16T04:02:19.019Z,1.99
2019-02-16T04:04:48.347Z,1.98
2019-02-16T04:07:17.705Z,1.93
2019-02-16T04:09:47.018Z,1.94
2019-02-16T04:12:16.331Z,1.95
2019-02-16T04:14:45.728Z,1.93
2019-02-16T04:17:15.084Z,1.91
2019-02-16T04:19:44.397Z,1.97
2019-02-16T04:22:23.882Z,2.00
2019-02-16T04:24:44.872Z,1.98
2019-02-16T04:27:14.273Z,2.01
2019-02-16T04:29:43.644Z,1.93
2019-02-16T04:32:12.955Z,1.74
2019-02-16T04:34:42.309Z,1.59
2019-02-16T04:37:11.626Z,1.62
2019-02-16T04:39:40.927Z,1.58
2019-02-16T04:42:10.252Z,1.53
2019-02-16T04:44:39.741Z,1.55
2019-02-16T04:47:09.081Z,1.55
2019-02-16T04:49:38.425Z,1.52
2019-02-16T04:52:07.468Z,1.52
2019-02-16T04:54:36.944Z,1.50
2019-02-16T04:57:06.279Z,1.49
2019-02-16T04:59:35.652Z,1.49
2019-02-16T05:02:04.987Z,1.51
2019-02-16T05:04:34.354Z,1.50
2019-02-16T05:07:03.671Z,1.36
2019-02-16T05:09:32.991Z,1.18
2019-02-16T05:12:02.366Z,1.40
2019-02-16T05:14:31.698Z,1.40
2019-02-16T05:17:01.065Z,1.42
2019-02-16T05:19:30.400Z,1.44
2019-02-16T05:21:59.724Z,1.44
2019-02-16T05:24:29.078Z,1.39
2019-02-16T05:26:58.405Z,1.32
2019-02-16T05:29:27.786Z,1.19
2019-02-16T05:31:57.110Z,1.15
2019-02-16T05:34:26.450Z,1.25
2019-02-16T05:36:55.830Z,1.36
2019-02-16T05:39:25.178Z,1.64
2019-02-16T05:41:55.208Z,2.12
2019-02-16T05:44:25.482Z,2.37
2019-02-16T05:46:56.174Z,2.37
2019-02-16T05:49:26.000Z,2.61
2019-02-16T05:51:55.719Z,2.91
2019-02-16T05:54:25.217Z,3.39
2019-02-16T05:56:54.996Z,3.60
2019-02-16T05:59:24.484Z,3.87
2019-02-16T06:01:55.516Z,4.24
2019-02-16T06:04:25.341Z,4.52
2019-02-16T06:06:54.710Z,4.75
2019-02-16T06:09:24.122Z,5.15
2019-02-16T06:11:53.497Z,5.22
2019-02-16T06:14:22.888Z,5.39
2019-02-16T06:16:52.209Z,5.65
2019-02-16T06:19:21.874Z,6.06
2019-02-16T06:21:51.248Z,6.17
2019-02-16T06:24:20.565Z,5.98
2019-02-16T06:26:49.940Z,6.03
2019-02-16T06:29:19.258Z,6.19
2019-02-16T06:31:48.569Z,6.47
2019-02-16T06:34:17.906Z,6.80
2019-02-16T06:36:47.347Z,6.97
2019-02-16T06:39:16.691Z,6.80
2019-02-16T06:41:46.097Z,6.84
2019-02-16T06:44:15.539Z,7.09
2019-02-16T06:46:44.956Z,6.96
2019-02-16T06:49:14.316Z,7.22
2019-02-16T06:51:43.623Z,7.42
2019-02-16T06:54:13.065Z,7.17
2019-02-16T06:57:01.688Z,7.13
2019-02-16T06:59:30.997Z,7.52
2019-02-16T07:02:00.398Z,7.65
2019-02-16T07:04:29.725Z,7.93
2019-02-16T07:06:59.087Z,7.53
2019-02-16T07:09:28.542Z,7.24
2019-02-16T07:11:57.910Z,7.57
2019-02-16T07:14:27.267Z,7.59
2019-02-16T07:17:12.249Z,7.62
2019-02-16T07:19:46.572Z,7.50
2019-02-16T07:22:15.954Z,7.86
2019-02-16T07:24:45.474Z,8.26
2019-02-16T07:27:14.882Z,8.10
2019-02-16T07:29:44.274Z,7.87
2019-02-16T07:32:13.681Z,8.25
2019-02-16T07:34:43.118Z,8.28
2019-02-16T07:37:12.496Z,8.77
2019-02-16T07:39:41.898Z,8.94
2019-02-16T07:42:11.269Z,8.70
2019-02-16T07:44:51.952Z,8.17
2019-02-16T07:47:58.635Z,7.93
2019-02-16T07:51:05.062Z,7.55
2019-02-16T07:53:43.054Z,6.87
2019-02-16T07:56:39.924Z,7.14
2019-02-16T07:59:34.261Z,7.60
2019-02-16T08:02:09.118Z,7.64
2019-02-16T08:04:57.436Z,7.93
2019-02-16T08:07:48.270Z,8.35
2019-02-16T08:10:45.452Z,8.57
2019-02-16T08:13:39.603Z,8.56
2019-02-16T08:16:34.183Z,8.35
2019-02-16T08:19:34.516Z,8.51
2019-02-16T08:22:37.871Z,8.39
2019-02-16T08:25:27.595Z,8.90
2019-02-16T08:28:14.646Z,9.12
2019-02-16T08:31:01.639Z,8.77
2019-02-16T08:33:48.704Z,9.00
2019-02-16T08:36:32.722Z,9.50
2019-02-16T08:39:16.630Z,10.11
2019-02-16T08:42:07.784Z,9.70
2019-02-16T08:44:54.825Z,9.69
2019-02-16T08:47:52.268Z,10.11
2019-02-16T08:50:40.582Z,10.52
2019-02-16T08:53:28.868Z,9.83
2019-02-16T08:56:15.761Z,9.80
2019-02-16T08:59:13.211Z,9.91
2019-02-16T09:01:55.985Z,9.33
2019-02-16T09:04:49.476Z,9.53
2019-02-16T09:07:33.428Z,9.53
2019-02-16T09:10:18.772Z,9.85
2019-02-16T09:13:09.856Z,10.57
2019-02-16T09:15:57.718Z,10.76
2019-02-16T09:18:46.019Z,10.19
2019-02-16T09:21:34.265Z,10.19
2019-02-16T09:24:28.641Z,10.85
2019-02-16T09:27:28.245Z,10.52
2019-02-16T09:30:22.563Z,10.88
2019-02-16T09:33:13.860Z,11.40
2019-02-16T09:35:51.768Z,11.17
2019-02-16T09:38:42.860Z,10.56
2019-02-16T09:41:31.184Z,10.12
2019-02-16T09:44:22.277Z,10.49
2019-02-16T09:47:19.462Z,10.46
2019-02-16T09:50:06.909Z,10.37
2019-02-16T09:52:57.210Z,11.06
2019-02-16T09:55:45.650Z,10.96
2019-02-16T09:58:32.782Z,10.84
2019-02-16T10:01:21.104Z,10.67
2019-02-16T10:04:04.450Z,11.28
2019-02-16T10:06:43.719Z,11.08
2019-02-16T10:09:38.249Z,11.55
2019-02-16T10:12:41.599Z,11.76
2019-02-16T10:15:33.319Z,11.73
2019-02-16T10:18:24.688Z,12.16
2019-02-16T10:21:09.441Z,11.05
2019-02-16T10:24:07.136Z,10.85
2019-02-16T10:26:58.428Z,11.36
2019-02-16T10:29:56.012Z,11.64
2019-02-16T10:32:38.541Z,11.21
2019-02-16T10:35:42.363Z,11.47
2019-02-16T10:38:25.448Z,11.72
2019-02-16T10:41:12.809Z,11.98
2019-02-16T10:44:00.912Z,11.76
2019-02-16T10:47:01.201Z,12.28
2019-02-16T10:49:49.549Z,12.28
2019-02-16T10:52:29.896Z,12.10
2019-02-16T10:55:12.470Z,11.58
2019-02-16T10:58:12.950Z,11.09
2019-02-16T11:00:55.072Z,11.31
2019-02-16T11:03:43.382Z,11.09
2019-02-16T11:06:31.430Z,10.88
2019-02-16T11:09:14.518Z,11.37
2019-02-16T11:11:59.402Z,11.84
2019-02-16T11:14:46.553Z,12.10
2019-02-16T11:17:50.042Z,11.90
2019-02-16T11:20:27.804Z,12.26
2019-02-16T11:23:24.994Z,12.74
2019-02-16T11:26:28.681Z,11.06
2019-02-16T11:29:20.192Z,12.46
2019-02-16T11:32:02.255Z,12.25
2019-02-16T11:34:53.367Z,11.73
2019-02-16T11:37:44.653Z,12.44
2019-02-16T11:40:31.836Z,12.74
2019-02-16T11:43:18.376Z,12.53
2019-02-16T11:46:00.299Z,11.37
2019-02-16T11:49:06.708Z,11.76
2019-02-16T11:52:14.575Z,12.57
2019-02-16T11:55:11.512Z,13.29
2019-02-16T11:58:08.889Z,13.24
2019-02-16T12:01:02.193Z,12.93
2019-02-16T12:03:47.566Z,12.68
2019-02-16T12:06:28.040Z,12.34
2019-02-16T12:09:19.845Z,11.88
2019-02-16T12:12:07.202Z,12.08
2019-02-16T12:15:04.805Z,11.85
2019-02-16T12:17:59.313Z,11.97
2019-02-16T12:20:46.527Z,12.48
2019-02-16T12:23:25.574Z,12.78
2019-02-16T12:26:05.854Z,12.60
2019-02-16T12:29:06.210Z,12.17
2019-02-16T12:32:00.575Z,12.18
2019-02-16T12:34:41.424Z,12.27
2019-02-16T12:37:20.367Z,12.42
2019-02-16T12:40:02.427Z,12.28
2019-02-16T12:42:42.066Z,12.49
2019-02-16T12:45:18.477Z,12.38
2019-02-16T12:47:59.863Z,12.77
2019-02-16T12:50:38.764Z,12.64
2019-02-16T12:53:22.869Z,12.64
2019-02-16T12:56:09.763Z,12.67
2019-02-16T12:58:49.143Z,12.63
2019-02-16T13:01:36.504Z,12.36
2019-02-16T13:04:30.760Z,12.37
2019-02-16T13:07:07.507Z,12.10
2019-02-16T13:09:42.703Z,12.41
2019-02-16T13:12:35.267Z,12.49
2019-02-16T13:15:33.343Z,12.64
2019-02-16T13:18:31.253Z,12.42
2019-02-16T13:21:16.230Z,12.21
2019-02-16T13:24:13.839Z,12.45
2019-02-16T13:27:08.399Z,12.31
2019-02-16T13:29:58.018Z,12.39
2019-02-16T13:32:45.806Z,12.01
2019-02-16T13:35:32.957Z,12.23
2019-02-16T13:38:24.630Z,12.19
2019-02-16T13:41:15.260Z,12.20
2019-02-16T13:43:49.859Z,12.48
2019-02-16T13:46:33.741Z,12.35
2019-02-16T13:49:16.310Z,12.32
2019-02-16T13:52:16.791Z,12.08
2019-02-16T13:55:00.438Z,11.85
2019-02-16T13:57:55.673Z,11.79
2019-02-16T14:00:29.649Z,11.60
2019-02-16T14:03:16.778Z,11.46
2019-02-16T14:05:54.696Z,11.47
2019-02-16T14:08:45.954Z,11.49
2019-02-16T14:11:30.026Z,11.40
2019-02-16T14:14:24.580Z,11.21
2019-02-16T14:17:22.011Z,11.18
2019-02-16T14:19:51.359Z,11.06
2019-02-16T14:22:20.736Z,10.95
2019-02-16T14:24:54.026Z,10.89
2019-02-16T14:27:24.667Z,10.97
2019-02-16T14:29:54.383Z,10.94
2019-02-16T14:32:23.749Z,11.13
2019-02-16T14:34:53.083Z,11.26
2019-02-16T14:37:54.354Z,11.06
2019-02-16T14:40:26.670Z,10.93
2019-02-16T14:42:56.127Z,10.90
2019-02-16T14:45:26.151Z,10.70
2019-02-16T14:47:55.492Z,10.64
2019-02-16T14:50:24.977Z,10.64
2019-02-16T14:52:54.347Z,10.87
2019-02-16T14:55:23.750Z,10.81
2019-02-16T14:57:53.158Z,10.64
2019-02-16T15:00:22.532Z,10.56
2019-02-16T15:02:52.090Z,10.48
2019-02-16T15:05:21.459Z,10.33
2019-02-16T15:07:50.857Z,10.27
2019-02-16T15:10:20.224Z,10.15
2019-02-16T15:12:49.585Z,10.11
2019-02-16T15:15:18.978Z,9.96
2019-02-16T15:17:48.294Z,9.93
2019-02-16T15:20:17.717Z,10.04
2019-02-16T15:22:47.905Z,10.01
2019-02-16T15:25:17.278Z,9.98
2019-02-16T15:27:46.682Z,9.88
2019-02-16T15:30:17.080Z,9.55
2019-02-16T15:32:46.535Z,9.38
2019-02-16T15:35:16.961Z,9.33
2019-02-16T15:37:46.319Z,9.23
2019-02-16T15:40:17.393Z,9.13
2019-02-16T15:42:47.442Z,9.04
2019-02-16T15:45:17.534Z,8.95
2019-02-16T15:47:46.747Z,8.85
2019-02-16T15:50:16.255Z,8.79
2019-02-16T15:52:45.752Z,8.65
2019-02-16T15:55:15.125Z,8.64
2019-02-16T15:57:46.808Z,8.53
2019-02-16T16:00:20.302Z,8.37
2019-02-16T16:02:50.864Z,8.34
2019-02-16T16:05:22.120Z,8.25
2019-02-16T16:08:16.027Z,8.19
2019-02-16T16:10:54.547Z,8.16
2019-02-16T16:13:54.947Z,8.11
2019-02-16T16:16:43.287Z,8.03
2019-02-16T16:19:34.882Z,7.98
2019-02-16T16:22:22.293Z,7.91
2019-02-16T16:25:04.139Z,7.89
2019-02-16T16:27:43.412Z,7.78
2019-02-16T16:30:43.656Z,7.68
2019-02-16T16:33:30.798Z,7.66
2019-02-16T16:36:23.405Z,7.42
2019-02-16T16:39:11.691Z,7.31
2019-02-16T16:42:02.835Z,7.38
2019-02-16T16:44:41.997Z,7.46
2019-02-16T16:47:36.185Z,7.38
2019-02-16T16:50:25.104Z,7.38
2019-02-16T16:53:14.294Z,7.39
2019-02-16T16:55:52.066Z,7.35
2019-02-16T16:58:44.148Z,7.31
2019-02-16T17:01:41.379Z,7.26
2019-02-16T17:04:29.704Z,7.18
2019-02-16T17:07:33.392Z,7.06
2019-02-16T17:10:29.082Z,6.87
2019-02-16T17:13:15.556Z,6.87
2019-02-16T17:16:03.879Z,6.84
2019-02-16T17:18:51.006Z,6.72
2019-02-16T17:21:39.280Z,6.94
2019-02-16T17:24:26.293Z,5.52
2019-02-16T17:27:17.818Z,6.75
2019-02-16T17:30:05.312Z,6.78
2019-02-16T17:32:52.767Z,6.65
2019-02-16T17:35:47.493Z,6.59
2019-02-16T17:38:24.092Z,6.52
2019-02-16T17:41:04.403Z,6.47
2019-02-16T17:44:10.920Z,6.47
2019-02-16T17:47:07.557Z,6.45
2019-02-16T17:49:46.595Z,6.30
2019-02-16T17:52:26.329Z,6.18
2019-02-16T17:55:17.752Z,6.14
2019-02-16T17:58:12.140Z,6.06
2019-02-16T18:00:59.054Z,5.99
2019-02-16T18:04:02.725Z,6.03
2019-02-16T18:06:57.137Z,5.98
2019-02-16T18:09:38.863Z,5.95
2019-02-16T18:12:26.933Z,5.88
2019-02-16T18:15:15.220Z,5.91
2019-02-16T18:17:55.806Z,6.03
2019-02-16T18:20:41.595Z,6.43
2019-02-16T18:23:19.287Z,6.29
2019-02-16T18:26:03.136Z,6.24
2019-02-16T18:29:00.599Z,6.24
2019-02-16T18:31:42.389Z,6.26
2019-02-16T18:34:29.516Z,6.03
2019-02-16T18:37:13.238Z,5.99
2019-02-16T18:40:02.471Z,6.14
2019-02-16T18:42:47.997Z,5.96
2019-02-16T18:45:34.712Z,5.94
2019-02-16T18:48:22.091Z,5.83
2019-02-16T18:51:13.267Z,5.75
2019-02-16T18:54:04.561Z,5.79
2019-02-16T18:57:06.046Z,5.98
2019-02-16T18:59:44.849Z,6.19
2019-02-16T19:02:36.445Z,5.89
2019-02-16T19:05:24.218Z,5.60
2019-02-16T19:08:15.642Z,5.33
2019-02-16T19:11:03.942Z,5.33
2019-02-16T19:14:01.348Z,5.31
2019-02-16T19:16:39.705Z,5.22
2019-02-16T19:19:26.204Z,5.05
2019-02-16T19:22:07.314Z,5.04
2019-02-16T19:24:57.915Z,5.10
2019-02-16T19:28:01.408Z,5.01
2019-02-16T19:30:41.703Z,4.94
2019-02-16T19:33:29.998Z,4.81
2019-02-16T19:36:20.515Z,4.74
2019-02-16T19:39:11.928Z,4.75
2019-02-16T19:42:00.241Z,4.64
2019-02-16T19:44:37.888Z,4.56
2019-02-16T19:47:26.185Z,4.55
2019-02-16T19:50:03.832Z,4.58
2019-02-16T19:52:40.059Z,2.97
2019-02-16T19:55:28.398Z,4.55
2019-02-16T19:58:11.640Z,4.53
2019-02-16T20:00:47.390Z,4.45
2019-02-16T20:03:27.364Z,4.41
2019-02-16T20:06:15.651Z,4.41
2019-02-16T20:09:15.516Z,4.38
2019-02-16T20:12:07.489Z,4.33
2019-02-16T20:14:45.739Z,4.26
2019-02-16T20:17:38.506Z,4.26
2019-02-16T20:20:30.927Z,4.24
2019-02-16T20:23:19.208Z,4.33
2019-02-16T20:25:59.512Z,4.31
2019-02-16T20:28:41.410Z,4.30
2019-02-16T20:31:16.668Z,4.19
2019-02-16T20:33:55.185Z,4.25
2019-02-16T20:36:46.544Z,4.18
2019-02-16T20:39:44.627Z,4.18
2019-02-16T20:42:42.000Z,4.04
2019-02-16T20:45:33.422Z,4.00
2019-02-16T20:48:31.949Z,4.02
2019-02-16T20:51:20.242Z,4.02
2019-02-16T20:54:02.981Z,3.97
2019-02-16T20:56:49.047Z,3.97
2019-02-16T20:59:40.079Z,3.90
2019-02-16T21:02:37.455Z,3.84
2019-02-16T21:05:41.006Z,3.84
2019-02-16T21:08:26.349Z,3.74
2019-02-16T21:11:23.449Z,3.79
2019-02-16T21:13:58.569Z,3.76
2019-02-16T21:16:46.108Z,3.72
2019-02-16T21:19:37.939Z,3.72
2019-02-16T21:22:38.439Z,3.63
2019-02-16T21:25:16.788Z,3.59
2019-02-16T21:27:58.134Z,3.83
2019-02-16T21:30:51.324Z,3.91
2019-02-16T21:33:38.289Z,3.89
2019-02-16T21:36:22.757Z,3.95
2019-02-16T21:39:10.417Z,3.91
2019-02-16T21:41:54.918Z,3.85
2019-02-16T21:44:44.276Z,3.66
2019-02-16T21:47:31.467Z,3.66
2019-02-16T21:50:17.897Z,3.67
2019-02-16T21:53:06.314Z,3.59
2019-02-16T21:55:57.436Z,3.56
2019-02-16T21:58:44.685Z,3.57
2019-02-16T22:01:22.316Z,3.50
2019-02-16T22:04:01.535Z,3.42
2019-02-16T22:06:59.198Z,3.37
2019-02-16T22:09:57.618Z,3.30
2019-02-16T22:12:52.085Z,3.25
2019-02-16T22:15:22.319Z,3.19
2019-02-16T22:17:52.643Z,3.19
2019-02-16T22:20:22.802Z,3.18
2019-02-16T22:22:52.602Z,3.18
2019-02-16T22:25:22.437Z,3.16
2019-02-16T22:27:52.274Z,3.25
2019-02-16T22:30:21.950Z,3.27
2019-02-16T22:32:51.754Z,3.27
2019-02-16T22:35:21.798Z,3.22
2019-02-16T22:37:51.143Z,3.13
2019-02-16T22:40:20.807Z,3.13
2019-02-16T22:42:50.147Z,2.98
2019-02-16T22:45:19.522Z,2.98
2019-02-16T22:47:48.896Z,2.82
2019-02-16T22:50:18.402Z,2.81
2019-02-16T22:52:48.950Z,2.79
2019-02-16T22:55:19.050Z,2.79
2019-02-16T22:57:48.404Z,2.87
2019-02-16T23:00:37.139Z,2.75
2019-02-16T23:03:08.138Z,2.69
2019-02-16T23:05:37.643Z,2.62
2019-02-16T23:08:07.448Z,2.64
2019-02-16T23:10:37.586Z,2.67
2019-02-16T23:13:08.940Z,2.71
2019-02-16T23:15:38.366Z,2.59
2019-02-16T23:18:08.104Z,2.51
2019-02-16T23:20:37.743Z,2.53
2019-02-16T23:23:07.963Z,2.31
2019-02-16T23:25:37.444Z,2.24
2019-02-16T23:28:07.731Z,2.13
2019-02-16T23:30:38.838Z,2.19
2019-02-16T23:33:09.063Z,2.23
2019-02-16T23:35:39.474Z,2.09
2019-02-16T23:38:08.995Z,2.02
2019-02-16T23:40:39.741Z,1.97
2019-02-16T23:43:09.505Z,1.75
2019-02-16T23:45:39.201Z,1.65
2019-02-16T23:48:10.419Z,1.62
2019-02-16T23:50:39.786Z,1.59
2019-02-16T23:53:09.555Z,1.66
2019-02-16T23:55:39.310Z,1.74
2019-02-16T23:58:08.990Z,1.78
